Sea Island, GA

4:28 PM EDT on August 23, 2014 (GMT -0400)
McKinnon | Change Station
CLOSE
Current Station
Airport
Location: Saint Simons Island,
Elevation: 20 ft
Nearby Weather Stations
Active Advisory: Heat Advisory

Elev 20 ft 31.15 °N, 81.39 °W | Updated 35 minutes ago

Scattered Clouds
Scattered Clouds
93 °F
Feels Like 107 °F
N
13
Wind Variable Wind from East
Gusts 16 mph

Today
High -- | Low -- °F
--% Chance of Precip.
Yesterday
High -- | Low -- °F
Precip. -- in
6:55 AM 7:59 PM
Waning Crescent, 3% visible
Pressure 29.88 in
Visibility 10.0 miles
Clouds Scattered Clouds 6500 ft
Heat Index 107 °F
Dew Point 77 °F
Humidity 59%
Rainfall 0.00 in
Snow Depth Not available.
UV 7 out of 12
Pollen 8.00 out of 12
Air Quality Not available.
Flu Activity Not available.
METAR KSSI 231953Z AUTO 10011G14KT 10SM SCT065 34/25 A2988 RMK AO2 SLP116 T03390250

More Conditions Fewer Conditions

Pressure 29.88 in
Visibility 10.0 miles
Clouds Scattered Clouds 6500 ft
Heat Index 107 °F
Dew Point 77 °F
Humidity 59%
Rainfall 0.00 in
Snow Depth Not available.
UV 7 out of 12
Pollen 8.00 out of 12
Air Quality Not available.
Flu Activity Not available.
METAR KSSI 231953Z AUTO 10011G14KT 10SM SCT065 34/25 A2988 RMK AO2 SLP116 T03390250

More Conditions Fewer Conditions

10-Day Weather Forecast

Almanac

Astronomy

Aug. 23, 2014 Rise Set
Actual Time 6:55 AM EDT 7:59 PM EDT
Civil Twilight 6:30 AM EDT 8:24 PM EDT
Nautical Twilight 6:01 AM EDT 8:54 PM EDT
Astronomical Twilight 5:30 AM EDT 9:24 PM EDT
Moon 5:13 AM EDT 6:42 PM EDT
Length of Visible Light 13h 53m
Length of Day
13h 03m
Tomorrow will be 1m 44s shorter.
Waning Crescent, 3% of the Moon is Illuminated
Today
Waning Crescent
Aug 25
New
Sep 2
First Quarter
Sep 8
Full
Sep 15
Last Quarter

Today's Extremes

State Highs State Lows

Community

WunderPhotos

Upload Photos

1,746,613 photos uploaded!

WunderBlogs® & News

Nearby

Snow Depth

Station Depth Elevation
No new snow has been reported.

Earthquake Activity

City Distance Mag. Time & Date
No recent earthquake activity has been reported nearby.
Minimum magnitude displayed is 2.5.

Coastal Water Temperatures

Place Temperature
Fernandina Beach, FL 86.0 °F
Mayport (Bar Pilots Dock), FL 84.9 °F

Nearby Weather Stations